createdAt,value
2016-11-13T00:01:04.002Z,935.07
2016-11-13T00:02:14.532Z,935.04
2016-11-13T00:03:25.262Z,935.04
2016-11-13T00:04:35.799Z,935.04
2016-11-13T00:06:00.859Z,935.08
2016-11-13T00:07:11.389Z,935.11
2016-11-13T00:08:21.917Z,935.05
2016-11-13T00:09:32.647Z,935.16
2016-11-13T00:10:43.176Z,935.21
2016-11-13T00:11:53.709Z,935.2
2016-11-13T00:13:04.245Z,935.25
2016-11-13T00:14:14.974Z,935.25
2016-11-13T00:15:25.503Z,935.27
2016-11-13T00:16:36.033Z,935.33
2016-11-13T00:17:46.562Z,935.29
2016-11-13T00:18:57.091Z,935.32
2016-11-13T00:20:22.142Z,935.29
2016-11-13T00:21:32.704Z,935.32
2016-11-13T00:22:43.234Z,935.35
2016-11-13T00:23:53.769Z,935.32
2016-11-13T00:25:04.301Z,935.33
2016-11-13T00:26:14.836Z,935.27
2016-11-13T00:27:25.365Z,935.27
2016-11-13T00:28:35.895Z,935.31
2016-11-13T00:29:46.424Z,935.3
2016-11-13T00:30:56.954Z,935.3
2016-11-13T00:32:07.490Z,935.32
2016-11-13T00:33:18.020Z,935.3
2016-11-13T00:34:28.548Z,935.33
2016-11-13T00:35:53.606Z,935.34
2016-11-13T00:37:04.141Z,935.32
2016-11-13T00:38:14.776Z,935.31
2016-11-13T00:39:25.303Z,935.36
2016-11-13T00:40:35.845Z,935.34
2016-11-13T00:41:46.405Z,935.36
2016-11-13T00:42:56.935Z,935.34
2016-11-13T00:44:07.958Z,935.34
2016-11-13T00:45:33.045Z,935.33
2016-11-13T00:46:43.580Z,935.35
2016-11-13T00:47:54.110Z,935.39
2016-11-13T00:49:04.836Z,935.4
2016-11-13T00:50:15.364Z,935.37
2016-11-13T00:51:25.893Z,935.39
2016-11-13T00:52:36.427Z,935.4
2016-11-13T00:53:46.957Z,935.41
2016-11-13T00:54:57.496Z,935.42
2016-11-13T00:56:08.026Z,935.44
2016-11-13T00:57:18.556Z,935.43
2016-11-13T00:58:29.092Z,935.45
2016-11-13T01:01:04.688Z,935.4
2016-11-13T01:02:15.218Z,935.43
2016-11-13T01:03:25.749Z,935.4
2016-11-13T01:04:36.307Z,935.41
2016-11-13T01:05:47.038Z,935.42
2016-11-13T01:06:57.564Z,935.4
2016-11-13T01:08:08.098Z,935.36
2016-11-13T01:09:18.659Z,935.39
2016-11-13T01:10:29.192Z,935.42
2016-11-13T01:11:39.724Z,935.4
2016-11-13T01:12:50.260Z,935.4
2016-11-13T01:14:00.789Z,935.4
2016-11-13T01:15:11.322Z,935.39
2016-11-13T01:16:22.053Z,935.37
2016-11-13T01:17:32.584Z,935.42
2016-11-13T01:18:43.149Z,935.36
2016-11-13T01:20:08.203Z,935.38
2016-11-13T01:21:18.731Z,935.37
2016-11-13T01:22:29.361Z,935.35
2016-11-13T01:23:39.932Z,935.33
2016-11-13T01:24:50.461Z,935.32
2016-11-13T01:26:00.989Z,935.3
2016-11-13T01:27:26.246Z,935.35
2016-11-13T01:28:36.776Z,935.34
2016-11-13T01:29:47.305Z,935.28
2016-11-13T01:30:57.833Z,935.33
2016-11-13T01:32:08.497Z,935.29
2016-11-13T01:33:19.056Z,935.27
2016-11-13T01:34:29.592Z,935.32
2016-11-13T01:35:40.120Z,935.29
2016-11-13T01:36:50.646Z,935.26
2016-11-13T01:38:01.373Z,935.25
2016-11-13T01:39:11.901Z,935.26
2016-11-13T01:40:36.955Z,935.26
2016-11-13T01:41:47.488Z,935.23
2016-11-13T01:42:58.013Z,935.24
2016-11-13T01:44:08.742Z,935.21
2016-11-13T01:45:19.272Z,935.21
2016-11-13T01:46:29.799Z,935.29
2016-11-13T01:47:40.366Z,935.27
2016-11-13T01:48:51.097Z,935.21
2016-11-13T01:50:01.633Z,935.2
2016-11-13T01:51:12.164Z,935.19
2016-11-13T01:52:22.691Z,935.19
2016-11-13T01:53:33.218Z,935.17
2016-11-13T01:54:43.751Z,935.12
2016-11-13T01:55:54.272Z,935.12
2016-11-13T01:57:04.684Z,935.11
2016-11-13T01:58:15.092Z,935.07
2016-11-13T01:59:25.499Z,935.06
2016-11-13T02:00:36.013Z,935.06
2016-11-13T02:01:46.423Z,935.05
2016-11-13T02:02:56.829Z,935.03
2016-11-13T02:04:07.240Z,935
2016-11-13T02:05:17.657Z,934.97
2016-11-13T02:06:28.168Z,934.94
2016-11-13T02:07:38.580Z,934.96
2016-11-13T02:08:48.993Z,934.93
2016-11-13T02:09:59.406Z,934.93
2016-11-13T02:11:09.803Z,934.98
2016-11-13T02:12:20.224Z,934.93
2016-11-13T02:13:30.543Z,934.91
2016-11-13T02:14:40.860Z,934.91
2016-11-13T02:15:51.178Z,934.88
2016-11-13T02:17:01.496Z,934.87
2016-11-13T02:18:26.383Z,934.85
2016-11-13T02:19:36.699Z,934.83
2016-11-13T02:20:47.056Z,934.79
2016-11-13T02:21:57.378Z,934.79
2016-11-13T02:23:07.896Z,934.74
2016-11-13T02:24:18.250Z,934.73
2016-11-13T02:25:28.570Z,934.71
2016-11-13T02:26:38.890Z,934.71
2016-11-13T02:27:49.240Z,934.7
2016-11-13T02:28:59.762Z,934.67
2016-11-13T02:30:10.079Z,934.64
2016-11-13T02:31:20.403Z,934.6
2016-11-13T02:32:30.720Z,934.58
2016-11-13T02:33:41.040Z,934.53
2016-11-13T02:34:51.564Z,934.53
2016-11-13T02:36:01.923Z,934.5
2016-11-13T02:37:12.248Z,934.53
2016-11-13T02:39:47.475Z,934.5
2016-11-13T02:40:58.024Z,934.47
2016-11-13T02:43:33.241Z,934.46
2016-11-13T02:44:58.330Z,934.43
2016-11-13T02:46:08.700Z,934.42
2016-11-13T02:47:19.020Z,934.4
2016-11-13T02:48:29.333Z,934.37
2016-11-13T02:49:39.657Z,934.33
2016-11-13T02:50:49.978Z,934.29
2016-11-13T02:52:00.298Z,934.33
2016-11-13T02:53:10.618Z,934.32
2016-11-13T02:54:20.939Z,934.28
2016-11-13T02:55:31.258Z,934.25
2016-11-13T02:56:41.579Z,934.24
2016-11-13T02:57:51.898Z,934.23
2016-11-13T02:59:02.218Z,934.18
2016-11-13T03:00:12.536Z,934.2
2016-11-13T03:01:37.444Z,934.16
2016-11-13T03:02:48.010Z,934.17
2016-11-13T03:03:58.329Z,934.18
2016-11-13T03:05:08.646Z,934.16
2016-11-13T03:06:18.966Z,934.09
2016-11-13T03:07:29.485Z,934.08
2016-11-13T03:08:39.806Z,934.04
2016-11-13T03:09:50.126Z,934.01
2016-11-13T03:11:00.448Z,933.97
2016-11-13T03:12:10.770Z,933.95
2016-11-13T03:13:21.289Z,933.95
2016-11-13T03:14:31.609Z,933.91
2016-11-13T03:15:41.926Z,933.92
2016-11-13T03:16:52.246Z,933.9
2016-11-13T03:18:02.565Z,933.87
2016-11-13T03:19:13.086Z,933.85
2016-11-13T03:20:23.406Z,933.77
2016-11-13T03:21:33.731Z,933.78
2016-11-13T03:22:44.055Z,933.78
2016-11-13T03:23:54.373Z,933.78
2016-11-13T03:25:04.799Z,933.73
2016-11-13T03:26:15.117Z,933.74
2016-11-13T03:27:25.436Z,933.74
2016-11-13T03:28:35.755Z,933.73
2016-11-13T03:29:46.074Z,933.71
2016-11-13T03:30:56.592Z,933.71
2016-11-13T03:32:06.944Z,933.68
2016-11-13T03:33:17.261Z,933.65
2016-11-13T03:34:42.176Z,933.59
2016-11-13T03:36:07.058Z,933.64
2016-11-13T03:37:17.378Z,933.56
2016-11-13T03:38:27.698Z,933.56
2016-11-13T03:39:38.015Z,933.55
2016-11-13T03:42:13.222Z,933.46
2016-11-13T03:43:23.575Z,933.45
2016-11-13T03:44:33.893Z,933.45
2016-11-13T03:45:44.211Z,933.4
2016-11-13T03:46:54.527Z,933.41
2016-11-13T03:48:04.846Z,933.38
2016-11-13T03:49:15.162Z,933.35
2016-11-13T03:50:40.081Z,933.36
2016-11-13T03:51:50.444Z,933.36
2016-11-13T03:53:00.770Z,933.36
2016-11-13T03:54:11.093Z,933.35
2016-11-13T03:55:35.979Z,933.35
2016-11-13T03:56:46.299Z,933.34
2016-11-13T03:57:56.817Z,933.31
2016-11-13T03:59:07.137Z,933.34
2016-11-13T04:00:17.458Z,933.3
2016-11-13T04:01:27.779Z,933.3
2016-11-13T04:02:38.112Z,933.29
2016-11-13T04:03:48.628Z,933.27
2016-11-13T04:04:58.947Z,933.27
2016-11-13T04:06:09.266Z,933.26
2016-11-13T04:07:19.583Z,933.25
2016-11-13T04:08:29.904Z,933.24
2016-11-13T04:09:40.432Z,933.25
2016-11-13T04:10:50.756Z,933.25
2016-11-13T04:12:01.083Z,933.18
2016-11-13T04:13:11.404Z,933.2
2016-11-13T04:14:21.721Z,933.21
2016-11-13T04:15:32.040Z,933.16
2016-11-13T04:16:42.362Z,933.15
2016-11-13T04:17:52.685Z,933.15
2016-11-13T04:19:03.006Z,933.11
2016-11-13T04:20:27.890Z,933.13
2016-11-13T04:21:38.209Z,933.14
2016-11-13T04:22:48.529Z,933.1
2016-11-13T04:23:58.847Z,933.11
2016-11-13T04:25:09.168Z,933.11
2016-11-13T04:26:19.505Z,933.13
2016-11-13T04:27:29.915Z,933.14
2016-11-13T04:28:54.874Z,933.08
2016-11-13T04:30:05.291Z,933.07
2016-11-13T04:31:30.451Z,933.02
2016-11-13T04:32:40.861Z,933
2016-11-13T04:34:05.819Z,933.02
2016-11-13T04:35:16.226Z,932.98
2016-11-13T04:36:26.645Z,932.98
2016-11-13T04:37:37.159Z,932.96
2016-11-13T04:38:47.580Z,932.95
2016-11-13T04:39:57.992Z,932.96
2016-11-13T04:41:08.407Z,932.91
2016-11-13T04:42:18.915Z,932.93
2016-11-13T04:43:29.324Z,932.89
2016-11-13T04:44:39.745Z,932.89
2016-11-13T04:45:50.272Z,932.93
2016-11-13T04:47:00.808Z,932.87
2016-11-13T04:48:11.539Z,932.91
2016-11-13T04:49:22.068Z,932.9
2016-11-13T04:50:32.595Z,932.88
2016-11-13T04:51:43.122Z,932.9
2016-11-13T04:52:53.648Z,932.87
2016-11-13T04:54:04.282Z,932.85
2016-11-13T04:55:14.820Z,932.87
2016-11-13T04:56:25.380Z,932.86
2016-11-13T04:57:35.906Z,932.9
2016-11-13T04:58:46.446Z,932.87
2016-11-13T04:59:57.076Z,932.9
2016-11-13T05:01:07.613Z,932.87
2016-11-13T05:02:18.142Z,932.9
2016-11-13T05:03:28.670Z,932.89
2016-11-13T05:04:39.226Z,932.92
2016-11-13T05:05:49.791Z,932.94
2016-11-13T05:07:14.845Z,932.93
2016-11-13T05:08:39.899Z,932.95
2016-11-13T05:09:50.431Z,932.92
2016-11-13T05:11:01.064Z,932.9
2016-11-13T05:13:36.648Z,932.88
2016-11-13T05:14:47.179Z,932.85
2016-11-13T05:15:57.708Z,932.85
2016-11-13T05:17:08.435Z,932.84
2016-11-13T05:18:18.966Z,932.84
2016-11-13T05:19:29.493Z,932.86
2016-11-13T05:20:40.021Z,932.84
2016-11-13T05:21:50.558Z,932.79
2016-11-13T05:23:01.091Z,932.82
2016-11-13T05:24:11.621Z,932.8
2016-11-13T05:25:22.148Z,932.79
2016-11-13T05:26:32.710Z,932.75
2016-11-13T05:27:43.338Z,932.78
2016-11-13T05:28:53.872Z,932.79
2016-11-13T05:30:04.480Z,932.76
2016-11-13T05:31:15.006Z,932.78
2016-11-13T05:32:25.531Z,932.76
2016-11-13T05:33:36.267Z,932.75
2016-11-13T05:34:46.796Z,932.76
2016-11-13T05:35:57.326Z,932.73
2016-11-13T05:37:07.854Z,932.75
2016-11-13T05:38:18.382Z,932.78
2016-11-13T05:39:28.917Z,932.76
2016-11-13T05:40:39.444Z,932.79
2016-11-13T05:41:49.973Z,932.78
2016-11-13T05:43:00.501Z,932.79
2016-11-13T05:44:11.062Z,932.74
2016-11-13T05:45:21.706Z,932.72
2016-11-13T05:46:32.241Z,932.71
2016-11-13T05:49:07.856Z,932.71
2016-11-13T05:50:18.383Z,932.69
2016-11-13T05:51:28.999Z,932.71
2016-11-13T05:52:39.410Z,932.73
2016-11-13T05:53:49.822Z,932.69
2016-11-13T05:55:00.234Z,932.71
2016-11-13T05:56:10.676Z,932.67
2016-11-13T05:57:20.993Z,932.67
2016-11-13T05:58:31.315Z,932.66
2016-11-13T05:59:41.632Z,932.65
2016-11-13T06:00:51.951Z,932.64
2016-11-13T06:02:02.470Z,932.68
2016-11-13T06:03:12.791Z,932.7
2016-11-13T06:04:37.675Z,932.68
2016-11-13T06:05:47.994Z,932.67
2016-11-13T06:06:58.350Z,932.7
2016-11-13T06:08:08.867Z,932.69
2016-11-13T06:09:19.186Z,932.71
2016-11-13T06:10:29.517Z,932.67
2016-11-13T06:11:39.836Z,932.68
2016-11-13T06:12:50.355Z,932.69
2016-11-13T06:14:00.676Z,932.72
2016-11-13T06:15:10.995Z,932.7
2016-11-13T06:16:21.313Z,932.7
2016-11-13T06:17:31.635Z,932.7
2016-11-13T06:18:42.153Z,932.69
2016-11-13T06:19:52.474Z,932.71
2016-11-13T06:21:02.790Z,932.69
2016-11-13T06:22:13.120Z,932.75
2016-11-13T06:23:23.437Z,932.72
2016-11-13T06:24:33.854Z,932.76
2016-11-13T06:25:44.172Z,932.74
2016-11-13T06:26:54.499Z,932.77
2016-11-13T06:28:04.833Z,932.78
2016-11-13T06:29:15.154Z,932.78
2016-11-13T06:30:25.673Z,932.75
2016-11-13T06:31:35.990Z,932.74
2016-11-13T06:32:46.306Z,932.76
2016-11-13T06:33:56.625Z,932.71
2016-11-13T06:35:06.944Z,932.77
2016-11-13T06:36:17.396Z,932.74
2016-11-13T06:37:27.718Z,932.76
2016-11-13T06:38:38.041Z,932.73
2016-11-13T06:39:48.357Z,932.77
2016-11-13T06:40:58.736Z,932.73
2016-11-13T06:42:09.356Z,932.79
2016-11-13T06:43:19.766Z,932.77
2016-11-13T06:44:30.225Z,932.75
2016-11-13T06:45:40.630Z,932.74
2016-11-13T06:46:51.037Z,932.76
2016-11-13T06:48:01.446Z,932.75
2016-11-13T06:49:11.860Z,932.76
2016-11-13T06:50:22.274Z,932.8
2016-11-13T06:51:32.687Z,932.75
2016-11-13T06:52:43.099Z,932.76
2016-11-13T06:53:53.745Z,932.73
2016-11-13T06:55:04.160Z,932.75
2016-11-13T06:56:14.570Z,932.71
2016-11-13T06:57:25.019Z,932.68
2016-11-13T07:00:00.602Z,932.71
2016-11-13T07:01:11.134Z,932.7
2016-11-13T07:02:21.701Z,932.7
2016-11-13T07:03:32.232Z,932.68
2016-11-13T07:04:42.761Z,932.7
2016-11-13T07:05:53.290Z,932.65
2016-11-13T07:07:18.349Z,932.63
2016-11-13T07:08:28.879Z,932.6
2016-11-13T07:09:39.413Z,932.61
2016-11-13T07:10:49.966Z,932.57
2016-11-13T07:12:00.496Z,932.56
2016-11-13T07:13:11.076Z,932.58
2016-11-13T07:14:21.603Z,932.57
2016-11-13T07:15:32.130Z,932.53
2016-11-13T07:16:42.659Z,932.59
2016-11-13T07:17:53.190Z,932.56
2016-11-13T07:19:03.715Z,932.57
2016-11-13T07:20:14.262Z,932.62
2016-11-13T07:21:24.996Z,932.58
2016-11-13T07:22:35.525Z,932.6
2016-11-13T07:23:46.052Z,932.62
2016-11-13T07:24:56.577Z,932.63
2016-11-13T07:26:07.589Z,932.58
2016-11-13T07:27:18.128Z,932.61
2016-11-13T07:28:28.561Z,932.6
2016-11-13T07:29:38.998Z,932.63
2016-11-13T07:30:49.435Z,932.64
2016-11-13T07:31:59.872Z,932.64
2016-11-13T07:33:10.297Z,932.6
2016-11-13T07:34:20.648Z,932.61
2016-11-13T07:35:30.967Z,932.64
2016-11-13T07:36:41.287Z,932.68
2016-11-13T07:37:52.086Z,932.64
2016-11-13T07:39:02.609Z,932.65
2016-11-13T07:40:12.926Z,932.65
2016-11-13T07:41:23.241Z,932.65
2016-11-13T07:42:33.561Z,932.69
2016-11-13T07:43:43.876Z,932.69
2016-11-13T07:44:54.397Z,932.71
2016-11-13T07:46:19.280Z,932.72
2016-11-13T07:47:29.600Z,932.73
2016-11-13T07:48:39.922Z,932.73
2016-11-13T07:49:50.241Z,932.75
2016-11-13T07:51:00.761Z,932.76
2016-11-13T07:52:11.077Z,932.75
2016-11-13T07:53:21.405Z,932.74
2016-11-13T07:54:31.733Z,932.81
2016-11-13T07:55:42.089Z,932.79
2016-11-13T07:56:52.409Z,932.79
2016-11-13T07:58:03.044Z,932.77
2016-11-13T07:59:13.361Z,932.82
2016-11-13T08:00:23.681Z,932.81
2016-11-13T08:01:34.199Z,932.81
2016-11-13T08:02:44.517Z,932.82
2016-11-13T08:03:54.832Z,932.86
2016-11-13T08:06:30.047Z,932.82
2016-11-13T08:07:40.596Z,932.81
2016-11-13T08:08:51.031Z,932.82
2016-11-13T08:10:01.474Z,932.84
2016-11-13T08:11:11.931Z,932.84
2016-11-13T08:12:22.562Z,932.86
2016-11-13T08:13:33.508Z,932.85
2016-11-13T08:14:44.033Z,932.87
2016-11-13T08:15:54.563Z,932.89
2016-11-13T08:17:19.696Z,932.88
2016-11-13T08:18:30.427Z,932.94
2016-11-13T08:19:40.970Z,932.9
2016-11-13T08:20:51.502Z,932.95
2016-11-13T08:22:02.037Z,932.94
2016-11-13T08:23:12.562Z,932.95
2016-11-13T08:24:23.089Z,932.94
2016-11-13T08:25:33.620Z,932.97
2016-11-13T08:26:44.153Z,932.99
2016-11-13T08:27:54.682Z,933.02
2016-11-13T08:29:05.311Z,933.07
2016-11-13T08:30:15.876Z,933.03
2016-11-13T08:31:40.933Z,933.08
2016-11-13T08:32:51.461Z,933.12
2016-11-13T08:34:02.488Z,933.11
2016-11-13T08:35:13.158Z,933.13
2016-11-13T08:36:23.685Z,933.15
2016-11-13T08:37:34.711Z,933.16
2016-11-13T08:38:45.238Z,933.18
2016-11-13T08:40:10.492Z,933.17
2016-11-13T08:41:21.022Z,933.21
2016-11-13T08:42:31.557Z,933.24
2016-11-13T08:43:42.088Z,933.22
2016-11-13T08:44:52.616Z,933.29
2016-11-13T08:46:03.147Z,933.28
2016-11-13T08:47:13.673Z,933.28
2016-11-13T08:48:24.199Z,933.29
2016-11-13T08:49:34.730Z,933.31
2016-11-13T08:50:45.501Z,933.33
2016-11-13T08:51:56.032Z,933.35
2016-11-13T08:53:06.621Z,933.39
2016-11-13T08:54:17.149Z,933.38
2016-11-13T08:55:27.682Z,933.39
2016-11-13T08:56:38.308Z,933.39
2016-11-13T08:57:48.836Z,933.43
2016-11-13T08:58:59.368Z,933.46
2016-11-13T09:00:09.905Z,933.46
2016-11-13T09:01:20.431Z,933.46
2016-11-13T09:02:31.200Z,933.46
2016-11-13T09:03:41.724Z,933.52
2016-11-13T09:04:52.250Z,933.49
2016-11-13T09:06:02.781Z,933.55
2016-11-13T09:07:13.308Z,933.54
2016-11-13T09:08:24.038Z,933.56
2016-11-13T09:09:34.567Z,933.62
2016-11-13T09:10:45.109Z,933.6
2016-11-13T09:11:55.639Z,933.58
2016-11-13T09:13:06.167Z,933.61
2016-11-13T09:14:16.896Z,933.64
2016-11-13T09:15:27.430Z,933.62
2016-11-13T09:16:37.990Z,933.65
2016-11-13T09:17:48.519Z,933.62
2016-11-13T09:18:59.046Z,933.66
2016-11-13T09:20:09.576Z,933.65
2016-11-13T09:21:20.712Z,933.67
2016-11-13T09:22:31.239Z,933.67
2016-11-13T09:23:41.766Z,933.65
2016-11-13T09:24:52.334Z,933.66
2016-11-13T09:26:02.960Z,933.65
2016-11-13T09:27:13.488Z,933.68
2016-11-13T09:28:24.016Z,933.7
2016-11-13T09:29:34.546Z,933.71
2016-11-13T09:30:45.084Z,933.7
2016-11-13T09:31:55.615Z,933.73
2016-11-13T09:33:06.145Z,933.75
2016-11-13T09:34:16.673Z,933.74
2016-11-13T09:35:27.202Z,933.78
2016-11-13T09:36:52.262Z,933.76
2016-11-13T09:38:02.993Z,933.75
2016-11-13T09:39:13.520Z,933.77
2016-11-13T09:40:24.048Z,933.79
2016-11-13T09:41:34.576Z,933.8
2016-11-13T09:42:45.105Z,933.8
2016-11-13T09:43:55.659Z,933.8
2016-11-13T09:45:06.186Z,933.82
2016-11-13T09:46:16.717Z,933.85
2016-11-13T09:47:27.753Z,933.86
2016-11-13T09:48:38.482Z,933.85
2016-11-13T09:49:49.010Z,933.86
2016-11-13T09:50:59.543Z,933.89
2016-11-13T09:52:10.102Z,933.85
2016-11-13T09:53:20.640Z,933.9
2016-11-13T09:54:31.169Z,933.88
2016-11-13T09:55:41.697Z,933.89
2016-11-13T09:56:52.226Z,933.91
2016-11-13T09:58:02.756Z,933.9
2016-11-13T09:59:13.285Z,933.93
2016-11-13T10:00:24.014Z,933.92
2016-11-13T10:01:34.543Z,933.95
2016-11-13T10:02:45.078Z,933.96
2016-11-13T10:03:55.611Z,933.96
2016-11-13T10:05:06.142Z,933.93
2016-11-13T10:06:31.400Z,933.94
2016-11-13T10:07:41.934Z,933.96
2016-11-13T10:08:52.465Z,933.94
2016-11-13T10:10:02.996Z,933.92
2016-11-13T10:11:13.624Z,933.94
2016-11-13T10:12:24.152Z,933.93
2016-11-13T10:13:34.684Z,933.96
2016-11-13T10:14:45.208Z,933.99
2016-11-13T10:15:56.247Z,933.97
2016-11-13T10:17:07.477Z,933.98
2016-11-13T10:18:18.006Z,933.98
2016-11-13T10:19:28.529Z,933.98
2016-11-13T10:20:38.943Z,933.97
2016-11-13T10:21:49.359Z,933.91
2016-11-13T10:22:59.971Z,933.95
2016-11-13T10:24:10.381Z,933.97
2016-11-13T10:25:20.789Z,933.93
2016-11-13T10:26:31.182Z,933.93
2016-11-13T10:27:41.498Z,933.91
2016-11-13T10:28:51.914Z,933.93
2016-11-13T10:30:02.234Z,933.95
2016-11-13T10:31:12.551Z,933.92
2016-11-13T10:32:37.442Z,933.96
2016-11-13T10:33:47.761Z,933.97
2016-11-13T10:34:58.287Z,933.93
2016-11-13T10:36:23.173Z,933.98
2016-11-13T10:37:33.494Z,934.03
2016-11-13T10:38:43.816Z,934.01
2016-11-13T10:39:54.336Z,933.99
2016-11-13T10:41:04.705Z,933.99
2016-11-13T10:42:15.022Z,934
2016-11-13T10:43:25.336Z,933.99
2016-11-13T10:44:35.651Z,934.03
2016-11-13T10:45:45.968Z,934.04
2016-11-13T10:46:56.285Z,934.04
2016-11-13T10:48:06.605Z,934.06
2016-11-13T10:49:16.924Z,934.06
2016-11-13T10:50:27.442Z,934.09
2016-11-13T10:51:37.768Z,934.12
2016-11-13T10:52:48.096Z,934.12
2016-11-13T10:53:58.416Z,934.15
2016-11-13T10:55:08.736Z,934.12
2016-11-13T10:56:19.631Z,934.12
2016-11-13T10:57:29.949Z,934.14
2016-11-13T10:58:40.268Z,934.11
2016-11-13T10:59:50.590Z,934.12
2016-11-13T11:01:00.911Z,934.14
2016-11-13T11:02:11.428Z,934.16
2016-11-13T11:03:21.747Z,934.17
2016-11-13T11:04:32.099Z,934.19
2016-11-13T11:05:42.418Z,934.22
2016-11-13T11:06:52.736Z,934.24
2016-11-13T11:08:17.922Z,934.18
2016-11-13T11:09:28.241Z,934.23
2016-11-13T11:10:38.590Z,934.21
2016-11-13T11:11:48.909Z,934.21
2016-11-13T11:12:59.428Z,934.25
2016-11-13T11:14:09.746Z,934.18
2016-11-13T11:15:20.075Z,934.18
2016-11-13T11:16:44.964Z,934.2
2016-11-13T11:18:09.951Z,934.22
2016-11-13T11:19:20.267Z,934.21
2016-11-13T11:20:30.585Z,934.21
2016-11-13T11:21:55.474Z,934.25
2016-11-13T11:23:05.795Z,934.22
2016-11-13T11:24:16.313Z,934.22
2016-11-13T11:25:26.634Z,934.26
2016-11-13T11:26:36.959Z,934.22
2016-11-13T11:27:47.277Z,934.19
2016-11-13T11:28:57.698Z,934.17
2016-11-13T11:30:08.019Z,934.21
2016-11-13T11:31:18.345Z,934.23
2016-11-13T11:32:28.663Z,934.21
2016-11-13T11:33:39.460Z,934.2
2016-11-13T11:34:49.980Z,934.21
2016-11-13T11:36:00.300Z,934.24
2016-11-13T11:37:10.670Z,934.23
2016-11-13T11:38:20.989Z,934.26
2016-11-13T11:39:31.306Z,934.27
2016-11-13T11:40:41.826Z,934.29
2016-11-13T11:41:52.149Z,934.27
2016-11-13T11:43:02.469Z,934.27
2016-11-13T11:44:13.267Z,934.27
2016-11-13T11:45:23.590Z,934.24
2016-11-13T11:46:34.009Z,934.26
2016-11-13T11:47:44.335Z,934.25
2016-11-13T11:48:54.663Z,934.26
2016-11-13T11:50:04.983Z,934.29
2016-11-13T11:51:15.306Z,934.31
2016-11-13T11:52:25.830Z,934.28
2016-11-13T11:53:36.157Z,934.3
2016-11-13T11:54:46.483Z,934.35
2016-11-13T11:55:56.820Z,934.33
2016-11-13T11:57:07.229Z,934.31
2016-11-13T11:58:17.838Z,934.31
2016-11-13T11:59:28.249Z,934.32
2016-11-13T12:00:38.661Z,934.33
2016-11-13T12:01:49.072Z,934.32
2016-11-13T12:02:59.481Z,934.34
2016-11-13T12:04:09.990Z,934.36
2016-11-13T12:05:20.400Z,934.33
2016-11-13T12:06:30.812Z,934.32
2016-11-13T12:07:41.710Z,934.36
2016-11-13T12:08:52.124Z,934.32
2016-11-13T12:10:02.733Z,934.34
2016-11-13T12:11:13.142Z,934.31
2016-11-13T12:12:24.038Z,934.37
2016-11-13T12:13:34.936Z,934.31
2016-11-13T12:14:45.339Z,934.38
2016-11-13T12:15:55.848Z,934.34
2016-11-13T12:17:06.261Z,934.33
2016-11-13T12:18:16.675Z,934.34
2016-11-13T12:19:27.081Z,934.37
2016-11-13T12:20:52.528Z,934.36
2016-11-13T12:23:27.904Z,934.34
2016-11-13T12:24:52.864Z,934.37
2016-11-13T12:26:03.278Z,934.38
2016-11-13T12:27:13.688Z,934.37
2016-11-13T12:28:24.100Z,934.36
2016-11-13T12:29:34.509Z,934.34
2016-11-13T12:30:44.925Z,934.33
2016-11-13T12:31:55.460Z,934.35
2016-11-13T12:33:20.416Z,934.35
2016-11-13T12:34:30.828Z,934.32
2016-11-13T12:35:41.241Z,934.33
2016-11-13T12:36:51.652Z,934.3
2016-11-13T12:38:02.266Z,934.33
2016-11-13T12:39:12.682Z,934.27
2016-11-13T12:40:23.576Z,934.29
2016-11-13T12:41:33.989Z,934.3
2016-11-13T12:42:44.602Z,934.29
2016-11-13T12:44:09.565Z,934.33
2016-11-13T12:45:19.976Z,934.27
2016-11-13T12:46:45.469Z,934.3
2016-11-13T12:47:56.081Z,934.3
2016-11-13T12:49:06.493Z,934.27
2016-11-13T12:50:16.903Z,934.26
2016-11-13T12:51:27.314Z,934.24
2016-11-13T12:52:37.728Z,934.24
2016-11-13T12:53:48.345Z,934.24
2016-11-13T12:54:58.758Z,934.23
2016-11-13T12:56:09.170Z,934.24
2016-11-13T12:57:19.585Z,934.27
2016-11-13T12:58:29.996Z,934.28
2016-11-13T12:59:40.609Z,934.26
2016-11-13T13:00:51.026Z,934.23
2016-11-13T13:02:01.437Z,934.26
2016-11-13T13:03:11.844Z,934.23
2016-11-13T13:04:22.253Z,934.23
2016-11-13T13:05:32.867Z,934.2
2016-11-13T13:06:43.280Z,934.19
2016-11-13T13:07:53.690Z,934.19
2016-11-13T13:09:04.102Z,934.19
2016-11-13T13:10:14.516Z,934.25
2016-11-13T13:11:24.924Z,934.17
2016-11-13T13:12:35.338Z,934.16
2016-11-13T13:13:45.754Z,934.15
2016-11-13T13:14:56.168Z,934.15
2016-11-13T13:16:06.580Z,934.13
2016-11-13T13:17:16.993Z,934.13
2016-11-13T13:18:27.406Z,934.12
2016-11-13T13:19:37.816Z,934.08
2016-11-13T13:20:48.223Z,934.12
2016-11-13T13:21:58.657Z,934.13
2016-11-13T13:23:09.268Z,934.11
2016-11-13T13:24:19.679Z,934.13
2016-11-13T13:25:30.096Z,934.11
2016-11-13T13:26:40.513Z,934.1
2016-11-13T13:27:50.925Z,934.08
2016-11-13T13:29:01.541Z,934.06
2016-11-13T13:30:11.953Z,934.05
2016-11-13T13:31:22.703Z,934.07
2016-11-13T13:32:33.659Z,934.09
2016-11-13T13:33:44.070Z,934.09
2016-11-13T13:34:54.677Z,934.11
2016-11-13T13:36:05.087Z,934.09
2016-11-13T13:37:15.502Z,934.13
2016-11-13T13:38:25.912Z,934.08
2016-11-13T13:39:36.325Z,934.11
2016-11-13T13:40:46.941Z,934.08
2016-11-13T13:41:57.352Z,934.07
2016-11-13T13:43:07.764Z,934.06
2016-11-13T13:44:18.175Z,934.04
2016-11-13T13:45:28.588Z,934.04
2016-11-13T13:46:39.201Z,934.08
2016-11-13T13:47:49.618Z,934.06
2016-11-13T13:49:00.068Z,934.07
2016-11-13T13:50:10.481Z,934
2016-11-13T13:51:20.891Z,934.05
2016-11-13T13:52:46.051Z,934.07
2016-11-13T13:53:56.462Z,934.03
2016-11-13T13:55:07.362Z,934.02
2016-11-13T13:57:42.931Z,934
2016-11-13T13:58:53.343Z,934.02
2016-11-13T14:00:03.763Z,933.98
2016-11-13T14:01:14.692Z,934.02
2016-11-13T14:02:25.103Z,934.02
2016-11-13T14:03:35.515Z,933.98
2016-11-13T14:04:45.959Z,934
2016-11-13T14:05:56.371Z,934.01
2016-11-13T14:07:06.821Z,934
2016-11-13T14:08:17.230Z,933.99
2016-11-13T14:09:42.287Z,933.98
2016-11-13T14:10:52.682Z,933.96
2016-11-13T14:12:03.008Z,933.97
2016-11-13T14:13:13.332Z,933.96
2016-11-13T14:14:23.651Z,933.96
2016-11-13T14:15:33.973Z,933.98
2016-11-13T14:16:44.296Z,933.96
2016-11-13T14:17:54.615Z,933.96
2016-11-13T14:19:04.967Z,933.97
2016-11-13T14:20:15.388Z,933.95
2016-11-13T14:21:25.705Z,933.96
2016-11-13T14:22:36.025Z,933.94
2016-11-13T14:23:46.347Z,933.91
2016-11-13T14:24:56.672Z,933.87
2016-11-13T14:26:07.197Z,933.86
2016-11-13T14:27:17.551Z,933.85
2016-11-13T14:28:27.873Z,933.83
2016-11-13T14:29:38.192Z,933.83
2016-11-13T14:30:48.516Z,933.87
2016-11-13T14:31:59.035Z,933.85
2016-11-13T14:33:09.355Z,933.85
2016-11-13T14:34:19.673Z,933.86
2016-11-13T14:35:29.993Z,933.84
2016-11-13T14:37:09.545Z,933.8
2016-11-13T14:38:19.866Z,933.86
2016-11-13T14:39:30.184Z,933.81
2016-11-13T14:40:55.073Z,933.82
2016-11-13T14:42:05.396Z,933.81
2016-11-13T14:43:15.819Z,933.8
2016-11-13T14:44:26.137Z,933.77
2016-11-13T14:45:36.456Z,933.75
2016-11-13T14:46:46.776Z,933.77
2016-11-13T14:47:57.301Z,933.71
2016-11-13T14:49:07.622Z,933.75
2016-11-13T14:50:17.950Z,933.74
2016-11-13T14:52:53.151Z,933.69
2016-11-13T14:54:03.469Z,933.69
2016-11-13T14:55:13.787Z,933.66
2016-11-13T14:56:24.104Z,933.67
2016-11-13T14:57:34.453Z,933.68
2016-11-13T14:58:45.348Z,933.71
2016-11-13T14:59:55.674Z,933.69
2016-11-13T15:01:05.994Z,933.67
2016-11-13T15:02:16.324Z,933.66
2016-11-13T15:03:26.653Z,933.64
2016-11-13T15:04:37.074Z,933.62
2016-11-13T15:05:47.393Z,933.61
2016-11-13T15:06:57.714Z,933.63
2016-11-13T15:08:08.035Z,933.61
2016-11-13T15:09:18.389Z,933.56